Benson, Nebraska
Current Conditions -  °F | °C
As of 11:01 AM on Sunday 23 Nov 2014 (Local Time) from KOMA Reporting Station
Overcast Overcast  
Wind Chill: 42°   Ceiling: 2300
Heat Index: 49°   Visibility: 10mi
Dew Point: 42°   Wind: 22mph
Humidity: 77%   Direction: 320°NW
Pressure: 29.48"   Gusts: 26mph
Location:  41.2947°N, 96.0008°W
Report Text: KOMA 231701Z 32019G23KT 10SM SCT014 OVC023 09/06 A2948 RMK AO2 T00940056
Loading
Personal Weather Stations






























Interactive Weather Map New forecast layout! Learn more

10-Day Weather Forecast

Advertisements
Track Severe Weather on mobile